Time;durP1;ratioP1;P1;durP2;ratioP2;P2;SDS_P1;SDS_P2;PMS_P1;PMS_P2;Temp;Humidity;BMP_temperature;BMP_pressure;BME280_temperature;BME280_humidity;BME280_pressure;Samples;Min_cycle;Max_cycle;Signal;HPM_P1;HPM_P2
2023/07/02 00:02:15;;;;;;;0.10;0.10;;;12.60;58.30;;;;;;5051700;28;20701;-55
2023/07/02 00:04:46;;;;;;;0.10;0.10;;;12.60;58.10;;;;;;5051653;28;20659;-52
2023/07/02 00:07:17;;;;;;;0.15;0.15;;;12.70;58.00;;;;;;5051367;28;20229;-57
2023/07/02 00:09:49;;;;;;;0.10;0.10;;;12.70;58.00;;;;;;5051719;28;20195;-55
2023/07/02 00:12:20;;;;;;;0.20;0.20;;;12.70;58.00;;;;;;5051425;28;20216;-52
2023/07/02 00:14:52;;;;;;;0.10;0.10;;;12.70;58.10;;;;;;5051818;28;20210;-55
2023/07/02 00:17:23;;;;;;;0.20;0.20;;;12.70;58.20;;;;;;5050674;28;20214;-54
2023/07/02 00:19:54;;;;;;;0.10;0.10;;;12.70;58.20;;;;;;5051117;28;20195;-50
2023/07/02 00:22:25;;;;;;;0.10;0.10;;;12.80;58.20;;;;;;5051132;28;20695;-48
2023/07/02 00:24:57;;;;;;;0.10;0.10;;;12.80;58.20;;;;;;5051588;28;20195;-49
2023/07/02 00:27:28;;;;;;;0.13;0.13;;;12.80;57.80;;;;;;5050729;28;20310;-49
2023/07/02 00:29:59;;;;;;;0.10;0.10;;;12.70;57.10;;;;;;5050787;28;20195;-49
2023/07/02 00:32:29;;;;;;;0.10;0.10;;;12.70;56.90;;;;;;5051046;28;20211;-49
2023/07/02 00:35:00;;;;;;;0.10;0.10;;;12.70;56.30;;;;;;5051102;28;20566;-52
2023/07/02 00:37:31;;;;;;;0.20;0.20;;;12.70;55.90;;;;;;5051060;28;20231;-50
2023/07/02 00:40:03;;;;;;;0.10;0.10;;;12.70;54.70;;;;;;5051027;28;20195;-53
2023/07/02 00:42:34;;;;;;;0.10;0.10;;;12.70;53.20;;;;;;5051059;28;20224;-47
2023/07/02 00:45:05;;;;;;;0.10;0.10;;;12.80;52.80;;;;;;5050810;28;20207;-47
2023/07/02 00:47:37;;;;;;;0.10;0.10;;;12.80;51.80;;;;;;5053298;28;20231;-54
2023/07/02 00:50:09;;;;;;;0.10;0.10;;;12.80;52.40;;;;;;5054743;28;20200;-52
2023/07/02 00:52:40;;;;;;;0.17;0.17;;;12.80;52.40;;;;;;5054436;28;20302;-51
2023/07/02 00:55:13;;;;;;;0.10;0.10;;;12.80;52.30;;;;;;5054754;28;20196;-52
2023/07/02 00:57:46;;;;;;;0.20;0.20;;;12.80;52.10;;;;;;5055019;28;20210;-50
2023/07/02 01:00:17;;;;;;;0.10;0.10;;;12.70;52.00;;;;;;5054498;28;20195;-51
2023/07/02 01:02:58;;;;;;;0.10;0.10;;;12.80;52.00;;;;;;5054650;28;20222;-49
2023/07/02 01:05:35;;;;;;;0.10;0.10;;;12.80;52.00;;;;;;5054496;28;20358;-52
2023/07/02 01:08:06;;;;;;;0.10;0.10;;;12.80;52.10;;;;;;5054215;28;20209;-50
2023/07/02 01:10:38;;;;;;;0.15;0.15;;;12.80;52.20;;;;;;5054464;28;20200;-54
2023/07/02 01:13:13;;;;;;;0.10;0.10;;;12.80;52.30;;;;;;5054514;28;20578;-54
2023/07/02 01:15:45;;;;;;;0.10;0.10;;;12.80;52.40;;;;;;5053899;28;20195;-52
2023/07/02 01:18:17;;;;;;;0.10;0.10;;;12.80;52.50;;;;;;5054370;28;20606;-49
2023/07/02 01:20:50;;;;;;;0.10;0.10;;;12.90;52.60;;;;;;5054406;28;20195;-52
2023/07/02 01:23:21;;;;;;;0.10;0.10;;;12.90;52.70;;;;;;5054464;28;20368;-52
2023/07/02 01:25:53;;;;;;;0.15;0.15;;;12.90;52.70;;;;;;5053657;28;20187;-50
2023/07/02 01:28:24;;;;;;;0.10;0.10;;;12.90;52.80;;;;;;5054431;28;20203;-45
2023/07/02 01:30:55;;;;;;;0.20;0.20;;;12.90;52.90;;;;;;5054199;28;20196;-50
2023/07/02 01:33:25;;;;;;;0.10;0.10;;;12.90;53.10;;;;;;5054240;28;20560;-50
2023/07/02 01:35:58;;;;;;;0.20;0.20;;;13.00;53.30;;;;;;5053976;28;20203;-52
2023/07/02 01:38:29;;;;;;;0.20;0.20;;;13.00;53.30;;;;;;5054875;28;20200;-49
2023/07/02 01:40:59;;;;;;;0.10;0.10;;;13.00;53.30;;;;;;5053687;28;20253;-50
2023/07/02 01:43:30;;;;;;;0.10;0.10;;;13.00;53.40;;;;;;5053438;28;20203;-50
2023/07/02 01:46:01;;;;;;;0.20;0.20;;;13.00;53.40;;;;;;5053832;28;20287;-51
2023/07/02 01:48:32;;;;;;;0.10;0.10;;;13.00;53.50;;;;;;5053628;28;20195;-52
2023/07/02 01:51:04;;;;;;;0.20;0.20;;;13.00;53.60;;;;;;5053310;28;20211;-49
2023/07/02 01:53:35;;;;;;;0.10;0.10;;;13.10;53.80;;;;;;5053140;28;20228;-51
2023/07/02 01:56:06;;;;;;;0.10;0.10;;;13.10;53.80;;;;;;5053209;28;20206;-50
2023/07/02 01:58:36;;;;;;;0.10;0.10;;;13.10;54.00;;;;;;5053229;28;20243;-53
2023/07/02 02:01:07;;;;;;;0.15;0.15;;;13.10;54.00;;;;;;5053124;28;20196;-53
2023/07/02 02:03:38;;;;;;;0.10;0.10;;;13.10;54.10;;;;;;5053431;28;20195;-48
2023/07/02 02:06:10;;;;;;;0.10;0.10;;;13.10;54.10;;;;;;5053286;28;20195;-54
2023/07/02 02:08:41;;;;;;;0.10;0.10;;;13.20;54.50;;;;;;5053358;28;20195;-52
2023/07/02 02:11:11;;;;;;;0.10;0.10;;;13.20;54.00;;;;;;5053099;28;20655;-46
2023/07/02 02:13:42;;;;;;;0.10;0.10;;;13.20;53.60;;;;;;5052919;28;20207;-53
2023/07/02 02:16:13;;;;;;;0.10;0.10;;;13.20;52.80;;;;;;5053057;28;20203;-45
2023/07/02 02:18:43;;;;;;;0.10;0.10;;;13.30;52.70;;;;;;5053182;28;20242;-48
2023/07/02 02:21:16;;;;;;;0.10;0.10;;;13.30;52.70;;;;;;5053037;28;20215;-49
2023/07/02 02:23:47;;;;;;;0.10;0.10;;;13.40;52.70;;;;;;5053138;28;20203;-48
2023/07/02 02:26:17;;;;;;;0.10;0.10;;;13.50;52.60;;;;;;5052067;28;20698;-49
2023/07/02 02:28:48;;;;;;;0.10;0.10;;;13.60;52.90;;;;;;5052592;28;20203;-50
2023/07/02 02:31:19;;;;;;;0.10;0.10;;;13.70;52.90;;;;;;5053054;28;20215;-48
2023/07/02 02:33:49;;;;;;;0.10;0.10;;;13.80;52.60;;;;;;5053001;28;20195;-58
2023/07/02 02:36:22;;;;;;;0.10;0.10;;;13.90;52.50;;;;;;5052849;28;20203;-56
2023/07/02 02:38:53;;;;;;;0.10;0.10;;;13.90;52.40;;;;;;5053116;28;20196;-47
2023/07/02 02:41:23;;;;;;;0.10;0.10;;;14.10;52.70;;;;;;5052581;28;20215;-53
2023/07/02 02:43:54;;;;;;;0.10;0.10;;;14.20;52.70;;;;;;5049517;28;20214;-54
2023/07/02 02:46:25;;;;;;;0.10;0.10;;;14.20;51.80;;;;;;5051960;28;20203;-51
2023/07/02 02:48:56;;;;;;;0.10;0.10;;;14.20;50.60;;;;;;5051537;28;20191;-55
2023/07/02 02:51:29;;;;;;;0.10;0.10;;;14.20;49.10;;;;;;5052009;28;20211;-57
2023/07/02 02:53:59;;;;;;;0.10;0.10;;;14.20;47.60;;;;;;5051784;28;20679;-56
2023/07/02 02:56:30;;;;;;;0.10;0.10;;;14.20;46.20;;;;;;5051993;28;20534;-54
2023/07/02 02:59:01;;;;;;;0.10;0.10;;;14.00;44.80;;;;;;5059847;28;20195;-56
2023/07/02 03:01:32;;;;;;;0.10;0.10;;;14.00;44.60;;;;;;5060132;28;20199;-57
2023/07/02 03:04:03;;;;;;;0.10;0.10;;;13.90;44.20;;;;;;5051283;28;20192;-50
2023/07/02 03:06:35;;;;;;;0.10;0.10;;;13.90;42.50;;;;;;5050812;28;20574;-49
2023/07/02 03:09:06;;;;;;;0.10;0.10;;;13.70;42.30;;;;;;5050541;28;20203;-55
2023/07/02 03:11:36;;;;;;;0.10;0.10;;;13.60;42.40;;;;;;5051297;28;20211;-49
2023/07/02 03:14:07;;;;;;;0.10;0.10;;;13.60;42.50;;;;;;5046923;28;20222;-48
2023/07/02 03:16:38;;;;;;;0.10;0.10;;;13.50;42.30;;;;;;5050980;28;20556;-48
2023/07/02 03:19:08;;;;;;;0.10;0.10;;;13.40;41.40;;;;;;5051687;28;20192;-56
2023/07/02 03:21:41;;;;;;;0.10;0.10;;;13.30;41.20;;;;;;5050742;28;20211;-52
2023/07/02 03:24:13;;;;;;;0.10;0.10;;;13.30;41.80;;;;;;5051001;28;20253;-60
2023/07/02 03:26:43;;;;;;;0.10;0.10;;;13.30;42.30;;;;;;5051074;28;20208;-57
2023/07/02 03:29:14;;;;;;;0.17;0.17;;;13.30;42.90;;;;;;5050435;28;20188;-56
2023/07/02 03:31:45;;;;;;;0.10;0.10;;;13.40;43.60;;;;;;5050674;28;20207;-56
2023/07/02 03:34:16;;;;;;;0.10;0.10;;;13.40;44.10;;;;;;5054857;28;20207;-54
2023/07/02 03:36:48;;;;;;;0.10;0.10;;;13.40;44.50;;;;;;5051278;28;20199;-59
2023/07/02 03:39:19;;;;;;;0.10;0.10;;;13.50;44.90;;;;;;5051460;28;20198;-51
2023/07/02 03:41:50;;;;;;;0.10;0.10;;;13.50;45.20;;;;;;5051234;28;20215;-55
2023/07/02 03:44:21;;;;;;;0.10;0.10;;;13.60;45.60;;;;;;5050825;28;20195;-57
2023/07/02 03:46:52;;;;;;;0.20;0.20;;;13.60;46.00;;;;;;5050334;28;20207;-54
2023/07/02 03:49:22;;;;;;;0.20;0.20;;;13.70;46.20;;;;;;5050977;28;20254;-54
2023/07/02 03:51:55;;;;;;;0.10;0.10;;;13.70;46.30;;;;;;5050940;28;20210;-58
2023/07/02 03:54:26;;;;;;;0.10;0.10;;;13.70;46.50;;;;;;5050861;28;20199;-57
2023/07/02 03:56:56;;;;;;;0.10;0.10;;;13.80;46.60;;;;;;5050518;28;20195;-60
2023/07/02 03:59:27;;;;;;;0.10;0.10;;;13.80;46.70;;;;;;5050904;28;20565;-60
2023/07/02 04:01:57;;;;;;;0.10;0.10;;;13.90;46.80;;;;;;5049504;28;20215;-61
2023/07/02 04:04:28;;;;;;;0.10;0.10;;;13.90;47.00;;;;;;5050892;28;20195;-55
2023/07/02 04:07:00;;;;;;;0.10;0.10;;;13.90;47.30;;;;;;5050965;28;20234;-59
2023/07/02 04:09:32;;;;;;;0.10;0.10;;;14.00;47.40;;;;;;5050043;28;20195;-53
2023/07/02 04:12:03;;;;;;;0.10;0.10;;;14.00;47.40;;;;;;5049979;28;20776;-59
2023/07/02 04:14:34;;;;;;;0.10;0.10;;;14.10;47.50;;;;;;5030264;28;20203;-57
2023/07/02 04:17:05;;;;;;;0.10;0.10;;;14.10;47.60;;;;;;5041863;28;20203;-58
2023/07/02 04:19:36;;;;;;;0.10;0.10;;;14.20;47.70;;;;;;5050404;28;20625;-59
2023/07/02 04:22:09;;;;;;;0.10;0.10;;;14.20;47.80;;;;;;5051802;28;20215;-58
2023/07/02 04:24:39;;;;;;;0.10;0.10;;;14.20;47.90;;;;;;5054695;28;20249;-50
2023/07/02 04:27:10;;;;;;;0.20;0.20;;;14.30;48.00;;;;;;5054059;28;20277;-58
2023/07/02 04:29:41;;;;;;;0.20;0.20;;;14.30;48.20;;;;;;5054250;28;20234;-53
2023/07/02 04:32:12;;;;;;;0.10;0.10;;;14.30;48.30;;;;;;5054974;28;20223;-55
2023/07/02 04:34:43;;;;;;;0.10;0.10;;;14.30;48.40;;;;;;5054222;28;20253;-57
2023/07/02 04:37:16;;;;;;;0.10;0.10;;;14.30;48.50;;;;;;5053865;28;20531;-55
2023/07/02 04:39:47;;;;;;;0.10;0.10;;;14.40;49.30;;;;;;5054447;28;20610;-58
2023/07/02 04:42:17;;;;;;;0.10;0.10;;;14.30;48.70;;;;;;5054519;28;20211;-58
2023/07/02 04:44:48;;;;;;;0.10;0.10;;;14.40;48.80;;;;;;5054481;28;20687;-57
2023/07/02 04:47:19;;;;;;;0.10;0.10;;;14.40;48.80;;;;;;5053688;28;20219;-59
2023/07/02 04:49:49;;;;;;;0.10;0.10;;;14.40;48.90;;;;;;5053364;28;20664;-58
2023/07/02 04:52:22;;;;;;;0.10;0.10;;;14.40;49.00;;;;;;5054501;28;20238;-58
2023/07/02 04:54:53;;;;;;;0.00;0.00;;;14.40;49.00;;;;;;5053684;28;20202;-52
2023/07/02 04:57:23;;;;;;;0.10;0.10;;;14.40;49.20;;;;;;5054442;28;20278;-58
2023/07/02 04:59:54;;;;;;;0.10;0.10;;;14.40;49.20;;;;;;5053549;28;20557;-56
2023/07/02 05:02:25;;;;;;;0.10;0.10;;;14.40;49.10;;;;;;5053657;28;20695;-55
2023/07/02 05:04:55;;;;;;;0.10;0.10;;;14.40;49.20;;;;;;5051666;28;20276;-59
2023/07/02 05:07:28;;;;;;;0.10;0.10;;;14.40;49.20;;;;;;5054258;28;20234;-59
2023/07/02 05:09:58;;;;;;;0.10;0.10;;;14.40;49.30;;;;;;5053670;28;20206;-58
2023/07/02 05:12:29;;;;;;;0.10;0.10;;;14.40;49.40;;;;;;5053195;28;20232;-57
2023/07/02 05:15:00;;;;;;;0.10;0.10;;;14.30;49.40;;;;;;5054059;28;20250;-58
2023/07/02 05:17:32;;;;;;;0.10;0.10;;;14.40;49.60;;;;;;5053646;28;20195;-48
2023/07/02 05:20:03;;;;;;;0.10;0.10;;;14.30;49.60;;;;;;5054126;28;20195;-53
2023/07/02 05:22:35;;;;;;;0.10;0.10;;;14.30;49.70;;;;;;5053233;28;20207;-55
2023/07/02 05:25:06;;;;;;;0.10;0.10;;;14.30;49.70;;;;;;5053413;28;20208;-57
2023/07/02 05:27:37;;;;;;;0.10;0.10;;;14.30;49.90;;;;;;5052298;28;20276;-57
2023/07/02 05:30:09;;;;;;;0.10;0.10;;;14.30;50.10;;;;;;5053529;28;20183;-59
2023/07/02 05:32:40;;;;;;;0.10;0.10;;;14.30;50.10;;;;;;5052451;28;20644;-56
2023/07/02 05:35:11;;;;;;;0.10;0.10;;;14.30;50.20;;;;;;5053271;28;20280;-59
2023/07/02 05:37:45;;;;;;;0.10;0.10;;;14.30;50.30;;;;;;5053428;28;20202;-59
2023/07/02 05:40:16;;;;;;;0.10;0.10;;;14.30;50.40;;;;;;5053899;28;20209;-53
2023/07/02 05:42:46;;;;;;;0.10;0.10;;;14.30;50.30;;;;;;5053759;28;20230;-59
2023/07/02 05:45:17;;;;;;;0.10;0.10;;;14.30;50.30;;;;;;5052221;28;20187;-57
2023/07/02 05:47:48;;;;;;;0.10;0.10;;;14.30;50.30;;;;;;5052274;28;20223;-57
2023/07/02 05:50:19;;;;;;;0.10;0.10;;;14.30;50.40;;;;;;5052552;28;20199;-51
2023/07/02 05:52:51;;;;;;;0.10;0.10;;;14.30;50.50;;;;;;5052796;28;20219;-55
2023/07/02 05:55:22;;;;;;;0.10;0.10;;;14.30;50.50;;;;;;5052158;28;20655;-58
2023/07/02 05:57:52;;;;;;;0.10;0.10;;;14.30;50.60;;;;;;5052982;28;20218;-60
2023/07/02 06:00:23;;;;;;;0.17;0.17;;;14.20;50.60;;;;;;5052274;28;20214;-55
2023/07/02 06:02:54;;;;;;;0.10;0.10;;;14.30;50.70;;;;;;5052410;28;20220;-56
2023/07/02 06:05:24;;;;;;;0.00;0.00;;;14.20;50.70;;;;;;5052245;28;20194;-58
2023/07/02 06:07:57;;;;;;;0.20;0.20;;;14.20;50.80;;;;;;5051755;28;20222;-56
2023/07/02 06:10:27;;;;;;;0.10;0.10;;;14.20;50.80;;;;;;5052715;28;20200;-53
2023/07/02 06:12:58;;;;;;;0.10;0.10;;;14.20;50.80;;;;;;5052192;28;20219;-56
2023/07/02 06:15:29;;;;;;;0.10;0.10;;;14.20;50.80;;;;;;5044992;28;20214;-53
2023/07/02 06:17:59;;;;;;;0.10;0.10;;;14.20;50.90;;;;;;5043886;28;20200;-58
2023/07/02 06:20:30;;;;;;;0.10;0.10;;;14.20;51.00;;;;;;5052139;28;20192;-54
2023/07/02 06:23:02;;;;;;;0.10;0.10;;;14.20;51.00;;;;;;5052093;28;20219;-57
2023/07/02 06:25:33;;;;;;;0.10;0.10;;;14.20;51.10;;;;;;5051223;28;20434;-55
2023/07/02 06:28:04;;;;;;;0.10;0.10;;;14.20;51.10;;;;;;5051928;28;20302;-56
2023/07/02 06:30:35;;;;;;;0.10;0.10;;;14.20;51.20;;;;;;5051213;28;20192;-53
2023/07/02 06:33:05;;;;;;;0.10;0.10;;;14.20;51.20;;;;;;5052106;28;20219;-58
2023/07/02 06:35:36;;;;;;;0.10;0.10;;;14.20;51.20;;;;;;5048813;28;20219;-54
2023/07/02 06:38:08;;;;;;;0.10;0.10;;;14.20;51.30;;;;;;5043186;28;20207;-51
2023/07/02 06:40:42;;;;;;;0.10;0.10;;;14.10;51.30;;;;;;5042739;28;20184;-52
2023/07/02 06:43:13;;;;;;;0.10;0.10;;;14.10;51.30;;;;;;5053010;28;20211;-52
2023/07/02 06:45:43;;;;;;;0.15;0.15;;;14.10;51.40;;;;;;5051141;28;20727;-52
2023/07/02 06:48:14;;;;;;;0.20;0.20;;;14.10;51.40;;;;;;5044877;28;20212;-54
2023/07/02 06:50:47;;;;;;;0.10;0.10;;;14.10;51.40;;;;;;5031323;28;20196;-49
2023/07/02 06:53:20;;;;;;;0.10;0.10;;;14.10;51.50;;;;;;5042796;28;20220;-51
2023/07/02 06:55:50;;;;;;;0.10;0.10;;;14.10;51.50;;;;;;5050997;28;20230;-55
2023/07/02 06:58:21;;;;;;;0.20;0.20;;;14.10;51.50;;;;;;5047811;28;20709;-48
2023/07/02 07:00:52;;;;;;;0.10;0.10;;;14.10;51.50;;;;;;5032142;28;20200;-50
2023/07/02 07:03:23;;;;;;;0.13;0.13;;;14.10;51.50;;;;;;5044129;28;20192;-51
2023/07/02 07:05:54;;;;;;;0.10;0.10;;;14.10;51.60;;;;;;5051888;28;20199;-49
2023/07/02 07:08:26;;;;;;;0.10;0.10;;;14.00;51.60;;;;;;5051026;28;20687;-52
2023/07/02 07:10:57;;;;;;;0.10;0.10;;;14.00;51.60;;;;;;5051208;28;20196;-53
2023/07/02 07:13:28;;;;;;;0.10;0.10;;;14.00;51.60;;;;;;5051438;28;20203;-51
2023/07/02 07:15:59;;;;;;;0.10;0.10;;;14.00;51.70;;;;;;5050779;28;20195;-52
2023/07/02 07:18:30;;;;;;;0.17;0.17;;;13.90;51.70;;;;;;5050799;28;20214;-51
2023/07/02 07:21:01;;;;;;;0.10;0.10;;;14.00;51.70;;;;;;5050956;28;20199;-52
2023/07/02 07:23:33;;;;;;;0.13;0.13;;;13.90;51.70;;;;;;5051379;28;20199;-53
2023/07/02 07:26:04;;;;;;;0.10;0.10;;;13.90;51.70;;;;;;5050523;28;20199;-51
2023/07/02 07:28:35;;;;;;;0.10;0.10;;;13.90;51.80;;;;;;5051877;28;20234;-52
2023/07/02 07:31:06;;;;;;;0.10;0.10;;;13.90;51.90;;;;;;5051055;28;20286;-48
2023/07/02 07:33:36;;;;;;;0.10;0.10;;;13.90;51.90;;;;;;5051058;28;20593;-53
2023/07/02 07:36:07;;;;;;;0.10;0.10;;;13.90;51.90;;;;;;5050598;28;20663;-53
2023/07/02 07:38:40;;;;;;;0.10;0.10;;;13.90;51.90;;;;;;5051050;28;20192;-53
2023/07/02 07:41:10;;;;;;;0.10;0.10;;;13.90;51.90;;;;;;5051252;28;20258;-59
2023/07/02 07:43:41;;;;;;;0.10;0.10;;;13.90;51.90;;;;;;5051298;28;20199;-56
2023/07/02 07:46:11;;;;;;;0.10;0.10;;;13.90;51.90;;;;;;5051031;28;20647;-51
2023/07/02 07:48:42;;;;;;;0.15;0.15;;;13.80;51.90;;;;;;5051212;28;20234;-56
2023/07/02 07:51:13;;;;;;;0.10;0.10;;;13.80;52.00;;;;;;5051279;28;20198;-52
2023/07/02 07:53:45;;;;;;;0.10;0.10;;;13.80;52.00;;;;;;5051502;28;20231;-57
2023/07/02 07:56:16;;;;;;;0.10;0.10;;;13.80;52.00;;;;;;5050273;28;20675;-48
2023/07/02 07:58:47;;;;;;;0.10;0.10;;;13.80;52.00;;;;;;5051396;28;20199;-54
2023/07/02 08:01:17;;;;;;;0.20;0.20;;;13.80;52.10;;;;;;5051017;28;20220;-54
2023/07/02 08:03:48;;;;;;;0.10;0.10;;;13.80;52.00;;;;;;5051042;28;20198;-52
2023/07/02 08:06:18;;;;;;;0.10;0.10;;;13.70;52.00;;;;;;5051531;28;20199;-49
2023/07/02 08:08:51;;;;;;;0.10;0.10;;;13.70;52.10;;;;;;5051237;28;20584;-60
2023/07/02 08:11:22;;;;;;;0.10;0.10;;;13.70;52.10;;;;;;5050947;28;20215;-56
2023/07/02 08:13:52;;;;;;;0.10;0.10;;;13.70;52.20;;;;;;5051376;28;20200;-53
2023/07/02 08:16:23;;;;;;;0.10;0.10;;;13.70;52.20;;;;;;5050975;28;20199;-47
2023/07/02 08:18:54;;;;;;;0.10;0.10;;;13.70;52.20;;;;;;5050710;28;20221;-47
2023/07/02 08:21:24;;;;;;;0.10;0.10;;;13.60;52.10;;;;;;5050824;28;20306;-47
2023/07/02 08:23:57;;;;;;;0.20;0.20;;;13.60;52.20;;;;;;5050283;28;20580;-52
2023/07/02 08:26:28;;;;;;;0.13;0.13;;;13.60;52.20;;;;;;5050306;28;20202;-50
2023/07/02 08:28:59;;;;;;;0.10;0.10;;;13.60;52.10;;;;;;5048876;28;20731;-48
2023/07/02 08:31:29;;;;;;;0.10;0.10;;;13.60;52.20;;;;;;5050687;28;20208;-53
2023/07/02 08:34:00;;;;;;;0.10;0.10;;;13.60;52.20;;;;;;5051251;28;20202;-52
2023/07/02 08:36:30;;;;;;;0.10;0.10;;;13.60;52.20;;;;;;5051224;28;20195;-61
2023/07/02 08:39:03;;;;;;;0.10;0.10;;;13.60;52.30;;;;;;5048560;28;20261;-53
2023/07/02 08:41:45;;;;;;;0.15;0.15;;;13.50;52.30;;;;;;5055069;28;20214;-60
2023/07/02 08:44:16;;;;;;;0.10;0.10;;;13.60;52.40;;;;;;5053185;28;20227;-53
2023/07/02 08:46:50;;;;;;;0.10;0.10;;;13.50;52.30;;;;;;5049848;28;20199;-54
2023/07/02 08:49:21;;;;;;;0.20;0.20;;;13.50;52.30;;;;;;5050213;28;20219;-56
2023/07/02 08:51:51;;;;;;;0.10;0.10;;;13.50;52.40;;;;;;5050174;28;20600;-56
2023/07/02 08:54:24;;;;;;;0.10;0.10;;;13.50;52.40;;;;;;5053317;28;20559;-58
2023/07/02 08:56:56;;;;;;;0.20;0.20;;;13.50;52.50;;;;;;5069537;28;20544;-58
2023/07/02 08:59:26;;;;;;;0.10;0.10;;;13.50;52.50;;;;;;5050084;28;20215;-54
2023/07/02 09:01:57;;;;;;;0.10;0.10;;;13.50;52.50;;;;;;5048073;28;20220;-55
2023/07/02 09:04:28;;;;;;;0.13;0.13;;;13.50;52.50;;;;;;5048577;28;20644;-56
2023/07/02 09:07:08;;;;;;;0.20;0.20;;;13.50;52.50;;;;;;5050647;28;20253;-53
2023/07/02 09:09:51;;;;;;;0.10;0.10;;;13.50;52.50;;;;;;5056763;28;20592;-52
2023/07/02 09:12:29;;;;;;;0.10;0.10;;;13.40;52.50;;;;;;5052916;28;20215;-58
2023/07/02 09:15:00;;;;;;;0.10;0.10;;;13.40;52.50;;;;;;5051105;28;20423;-50
2023/07/02 09:17:34;;;;;;;0.13;0.13;;;13.40;52.50;;;;;;5040716;28;20600;-57
2023/07/02 09:20:08;;;;;;;0.20;0.20;;;13.40;52.50;;;;;;5042624;28;20198;-58
2023/07/02 09:22:38;;;;;;;0.10;0.10;;;13.40;52.60;;;;;;5053309;28;20645;-52
2023/07/02 09:25:11;;;;;;;0.20;0.20;;;13.40;52.50;;;;;;5053116;28;20676;-54
2023/07/02 09:27:43;;;;;;;0.20;0.20;;;13.40;52.50;;;;;;5053282;28;20205;-59
2023/07/02 09:30:15;;;;;;;0.13;0.13;;;13.30;52.50;;;;;;5051942;28;20269;-56
2023/07/02 09:32:46;;;;;;;0.10;0.10;;;13.30;52.50;;;;;;5053060;28;20223;-55
2023/07/02 09:35:17;;;;;;;0.10;0.10;;;13.30;52.50;;;;;;5052846;28;20191;-53
2023/07/02 09:37:49;;;;;;;0.13;0.13;;;13.30;52.60;;;;;;5053237;28;20199;-58
2023/07/02 09:40:24;;;;;;;0.20;0.20;;;13.30;52.60;;;;;;5052809;28;20203;-56
2023/07/02 09:42:56;;;;;;;0.13;0.13;;;13.30;52.60;;;;;;5053205;28;20229;-54
2023/07/02 09:45:27;;;;;;;0.10;0.10;;;13.30;52.60;;;;;;5057692;28;20223;-55
2023/07/02 09:48:01;;;;;;;0.10;0.10;;;13.30;52.60;;;;;;5053238;28;20652;-58
2023/07/02 09:50:32;;;;;;;0.20;0.20;;;13.30;52.60;;;;;;5053531;28;20227;-58
2023/07/02 09:53:06;;;;;;;0.10;0.10;;;13.30;52.60;;;;;;5045925;28;20713;-60
2023/07/02 09:55:39;;;;;;;0.20;0.20;;;13.30;52.60;;;;;;5042648;28;20188;-56
2023/07/02 09:58:10;;;;;;;0.10;0.10;;;13.30;52.60;;;;;;5042391;28;20191;-54
2023/07/02 10:00:40;;;;;;;0.10;0.10;;;13.30;52.60;;;;;;5042542;28;20203;-53
2023/07/02 10:03:11;;;;;;;0.20;0.20;;;13.30;52.70;;;;;;5047274;28;20216;-59
2023/07/02 10:05:42;;;;;;;0.10;0.10;;;13.20;52.60;;;;;;5043003;28;20196;-57
2023/07/02 10:08:21;;;;;;;0.20;0.20;;;13.20;52.60;;;;;;5042016;28;20199;-52
2023/07/02 10:10:53;;;;;;;0.10;0.10;;;13.20;52.60;;;;;;5042293;28;20720;-57
2023/07/02 10:13:31;;;;;;;0.15;0.15;;;13.20;52.70;;;;;;5043980;28;20692;-59
2023/07/02 10:16:05;;;;;;;0.20;0.20;;;13.20;52.70;;;;;;5042499;28;20191;-55
2023/07/02 10:18:36;;;;;;;0.10;0.10;;;13.20;52.80;;;;;;5041731;28;20199;-56
2023/07/02 10:21:17;;;;;;;0.20;0.20;;;13.10;52.70;;;;;;5042474;28;20195;-59
2023/07/02 10:23:48;;;;;;;0.10;0.10;;;13.10;52.70;;;;;;5043468;28;20196;-54
2023/07/02 10:26:21;;;;;;;0.10;0.10;;;13.20;52.80;;;;;;5042026;28;20200;-57
2023/07/02 10:29:02;;;;;;;0.10;0.10;;;13.20;52.80;;;;;;5041164;28;20215;-56
2023/07/02 10:31:32;;;;;;;0.10;0.10;;;13.10;52.70;;;;;;5041437;28;20588;-57
2023/07/02 10:34:03;;;;;;;0.20;0.20;;;13.10;52.70;;;;;;5042231;28;20560;-54
2023/07/02 10:36:34;;;;;;;0.10;0.10;;;13.10;52.80;;;;;;5041617;28;20195;-57
2023/07/02 10:39:08;;;;;;;0.10;0.10;;;13.10;52.80;;;;;;5042697;28;20198;-60
2023/07/02 10:41:41;;;;;;;0.17;0.17;;;13.10;52.80;;;;;;5042283;28;20254;-56
2023/07/02 10:44:12;;;;;;;0.10;0.10;;;13.10;52.80;;;;;;5042060;28;20192;-59
2023/07/02 10:46:50;;;;;;;0.20;0.20;;;13.10;52.80;;;;;;5042079;28;20200;-60
2023/07/02 10:49:22;;;;;;;0.10;0.10;;;13.10;52.80;;;;;;5041805;28;20290;-57
2023/07/02 10:52:01;;;;;;;0.10;0.10;;;13.00;52.80;;;;;;5041723;28;20259;-57
2023/07/02 10:54:45;;;;;;;0.10;0.10;;;13.00;52.80;;;;;;5047261;28;20199;-57
2023/07/02 10:57:21;;;;;;;0.10;0.10;;;13.00;52.80;;;;;;5052837;28;20199;-56
2023/07/02 10:59:52;;;;;;;0.10;0.10;;;13.00;52.80;;;;;;5051911;28;20410;-58
2023/07/02 11:02:23;;;;;;;0.20;0.20;;;13.00;52.90;;;;;;5052040;28;20679;-60
2023/07/02 11:04:54;;;;;;;0.10;0.10;;;13.00;52.90;;;;;;5051887;28;20200;-60
2023/07/02 11:07:27;;;;;;;0.20;0.20;;;13.00;53.00;;;;;;5052637;28;20647;-57
2023/07/02 11:09:58;;;;;;;0.10;0.10;;;13.00;53.00;;;;;;5052387;28;20230;-62
2023/07/02 11:12:36;;;;;;;0.10;0.10;;;13.00;53.00;;;;;;5052740;28;20704;-57
2023/07/02 11:15:14;;;;;;;0.10;0.10;;;13.00;52.90;;;;;;5052160;28;20199;-58
2023/07/02 11:17:44;;;;;;;0.20;0.20;;;13.00;53.50;;;;;;5052112;28;20195;-54
2023/07/02 11:20:15;;;;;;;0.17;0.17;;;12.90;52.90;;;;;;5051572;28;20210;-59
2023/07/02 11:22:47;;;;;;;0.10;0.10;;;12.90;52.90;;;;;;5051851;28;20222;-59
2023/07/02 11:25:19;;;;;;;0.10;0.10;;;12.90;52.90;;;;;;5051972;28;20202;-58
2023/07/02 11:27:52;;;;;;;0.10;0.10;;;12.90;52.90;;;;;;5051050;28;20199;-56
2023/07/02 11:30:23;;;;;;;0.17;0.17;;;12.90;52.90;;;;;;5039215;28;20274;-58
2023/07/02 11:32:55;;;;;;;0.10;0.10;;;12.90;52.90;;;;;;5041076;28;20208;-57
2023/07/02 11:35:36;;;;;;;0.20;0.20;;;12.80;52.90;;;;;;5043067;28;20196;-53
2023/07/02 11:38:10;;;;;;;0.10;0.10;;;12.90;52.90;;;;;;5040414;28;20188;-59
2023/07/02 11:40:40;;;;;;;0.20;0.20;;;12.80;52.90;;;;;;5040786;28;20279;-59
2023/07/02 11:43:13;;;;;;;0.20;0.20;;;12.80;52.90;;;;;;5043078;28;20710;-53
2023/07/02 11:45:44;;;;;;;0.10;0.10;;;12.80;52.90;;;;;;5040098;28;20208;-58
2023/07/02 11:48:14;;;;;;;0.10;0.10;;;12.80;52.90;;;;;;5041616;28;20195;-53
2023/07/02 11:50:45;;;;;;;0.10;0.10;;;12.80;52.90;;;;;;5042572;28;20227;-58
2023/07/02 11:53:16;;;;;;;0.10;0.10;;;12.80;52.90;;;;;;5041210;28;20215;-60
2023/07/02 11:55:46;;;;;;;0.15;0.15;;;12.80;52.90;;;;;;5042244;28;20187;-57
2023/07/02 11:58:19;;;;;;;0.20;0.20;;;12.80;52.90;;;;;;5041160;28;20188;-59
2023/07/02 12:00:49;;;;;;;0.20;0.20;;;12.80;52.90;;;;;;5039663;28;20188;-57
2023/07/02 12:03:20;;;;;;;0.10;0.10;;;12.80;52.90;;;;;;5039888;28;20691;-57
2023/07/02 12:05:51;;;;;;;0.10;0.10;;;12.70;52.90;;;;;;5039787;28;20195;-59
2023/07/02 12:08:21;;;;;;;0.20;0.20;;;12.70;52.90;;;;;;5043594;28;20190;-57
2023/07/02 12:10:52;;;;;;;0.20;0.20;;;12.70;52.90;;;;;;5039478;28;20216;-60
2023/07/02 12:13:25;;;;;;;0.20;0.20;;;12.70;52.90;;;;;;5041021;28;20215;-60
2023/07/02 12:15:55;;;;;;;0.10;0.10;;;12.70;52.90;;;;;;5040052;28;20644;-60
2023/07/02 12:18:26;;;;;;;0.10;0.10;;;12.70;52.90;;;;;;5040609;28;20644;-54
2023/07/02 12:20:56;;;;;;;0.10;0.10;;;12.70;52.90;;;;;;5040501;28;20192;-59
2023/07/02 12:23:27;;;;;;;0.20;0.20;;;12.70;52.90;;;;;;5039875;28;20710;-58
2023/07/02 12:25:58;;;;;;;0.20;0.20;;;12.70;52.90;;;;;;5040599;28;20192;-54
2023/07/02 12:28:30;;;;;;;0.10;0.10;;;12.60;52.90;;;;;;5040084;28;20191;-58
2023/07/02 12:31:02;;;;;;;0.20;0.20;;;12.60;52.90;;;;;;5040852;28;20219;-54
2023/07/02 12:33:33;;;;;;;0.17;0.17;;;12.60;52.80;;;;;;5040002;28;20258;-57
2023/07/02 12:36:03;;;;;;;0.10;0.10;;;12.60;52.80;;;;;;5040345;28;20191;-54
2023/07/02 12:38:34;;;;;;;0.20;0.20;;;12.60;52.80;;;;;;5039699;28;20553;-57
2023/07/02 12:41:07;;;;;;;0.10;0.10;;;12.60;52.80;;;;;;5040580;28;20196;-56
2023/07/02 12:43:40;;;;;;;0.20;0.20;;;12.60;52.80;;;;;;5042729;28;20567;-58
2023/07/02 12:46:11;;;;;;;0.10;0.10;;;12.60;52.80;;;;;;5043618;28;20656;-62
2023/07/02 12:48:41;;;;;;;0.20;0.20;;;12.60;52.80;;;;;;5044385;28;20555;-58
2023/07/02 12:51:12;;;;;;;0.20;0.20;;;12.60;52.90;;;;;;5045342;28;20220;-55
2023/07/02 12:53:43;;;;;;;0.13;0.13;;;12.50;52.80;;;;;;5044991;28;20207;-62
2023/07/02 12:56:13;;;;;;;0.10;0.10;;;12.50;52.80;;;;;;5043664;28;20193;-57
2023/07/02 12:58:46;;;;;;;0.10;0.10;;;12.50;52.80;;;;;;5043768;28;20192;-60
2023/07/02 13:01:16;;;;;;;0.10;0.10;;;12.50;52.90;;;;;;5043019;28;20185;-62
2023/07/02 13:03:49;;;;;;;0.20;0.20;;;12.50;52.90;;;;;;5043821;28;20192;-58
2023/07/02 13:06:20;;;;;;;0.10;0.10;;;12.50;52.80;;;;;;5044295;28;20196;-58
2023/07/02 13:08:51;;;;;;;0.10;0.10;;;12.50;52.80;;;;;;5043029;28;20211;-59
2023/07/02 13:11:21;;;;;;;0.20;0.20;;;12.50;52.90;;;;;;5045116;28;20223;-55